Delta Ocean — SVAU9 — position and weather

sailwx.info

Track history (hours):
 
Tides and Currents Weather Stations Pressure Air Temp Water Temp Dewpoint Dewpoint Depression Visibility Wind Speed Wind Dir Waves Ship Positions

Delta Ocean

Last reported at 2014-Oct-20 15:32 UTC. Time now 2014-Oct-30 15:20 UTC.
Position N 16°25' W 062°13'.
Warning: this ship's position is 9 days out of date.

Length 274 m; draft 9.2 m.

Type: Tanker. MMSI: 240958000.

Date/timePositionNaut miles runAvg speedWind from/ knotsBaromVisibWave heightAir tempDewpointWater temp
2014-Oct-20 15:32N 16°25' W 062°13'1110.9
2014-Oct-20 14:33N 16°29' W 062°03'1110.8
2014-Oct-20 13:33N 16°33' W 061°52'1010.2
2014-Oct-20 12:33N 16°37' W 061°42'  
2014-Oct-11 12:24N 31°55' W 017°29'1011.8
2014-Oct-11 11:32N 31°59' W 017°18'1211.9
2014-Oct-11 10:33N 32°03' W 017°05'1212.3
2014-Oct-11 09:33N 32°08' W 016°51'1212.5
2014-Oct-11 08:33N 32°12' W 016°38'1212.3
2014-Oct-11 07:33N 32°17' W 016°24'  
Track history (hours):
 
Tides and Currents Weather Stations Pressure Air Temp Water Temp Dewpoint Dewpoint Depression Visibility Wind Speed Wind Dir Waves Ship Positions

Delta Ocean

Last reported at 2014-Oct-20 15:32 UTC. Time now 2014-Oct-30 15:20 UTC.
Position N 16°25' W 062°13'.
Warning: this ship's position is 9 days out of date.

Length 274 m; draft 9.2 m.

Type: Tanker. MMSI: 240958000.

Date/timePositionNaut miles runAvg speedWind from/ knotsBaromVisibWave heightAir tempDewpointWater temp
2014-Oct-20 15:32N 16°25' W 062°13'1110.9
2014-Oct-20 14:33N 16°29' W 062°03'1110.8
2014-Oct-20 13:33N 16°33' W 061°52'1010.2
2014-Oct-20 12:33N 16°37' W 061°42'  
2014-Oct-11 12:24N 31°55' W 017°29'1011.8
2014-Oct-11 11:32N 31°59' W 017°18'1211.9
2014-Oct-11 10:33N 32°03' W 017°05'1212.3
2014-Oct-11 09:33N 32°08' W 016°51'1212.5
2014-Oct-11 08:33N 32°12' W 016°38'1212.3
2014-Oct-11 07:33N 32°17' W 016°24'  

Dump ship's entire track history